createdAt,value
2023-02-02T00:04:29.495Z,10.25
2023-02-02T00:09:32.740Z,9.65
2023-02-02T00:14:34.857Z,9.88
2023-02-02T00:19:37.251Z,12.48
2023-02-02T00:24:39.362Z,6.05
2023-02-02T00:29:41.430Z,7.95
2023-02-02T00:34:43.491Z,9.55
2023-02-02T00:39:45.563Z,6.28
2023-02-02T00:45:06.279Z,8.35
2023-02-02T00:50:09.281Z,8.90
2023-02-02T00:55:12.574Z,7.25
2023-02-02T01:00:17.340Z,8.10
2023-02-02T01:05:20.585Z,8.40
2023-02-02T01:10:22.611Z,8.13
2023-02-02T01:15:25.040Z,8.48
2023-02-02T01:20:27.664Z,7.50
2023-02-02T01:25:32.502Z,8.95
2023-02-02T01:30:34.536Z,8.40
2023-02-02T01:35:36.531Z,8.65
2023-02-02T01:40:48.025Z,9.77
2023-02-02T01:45:54.406Z,6.65
2023-02-02T01:51:00.784Z,10.73
2023-02-02T01:56:06.051Z,10.98
2023-02-02T02:01:08.832Z,5.80
2023-02-02T02:06:17.011Z,6.38
2023-02-02T02:11:20.581Z,10.82
2023-02-02T02:16:22.717Z,13.35
2023-02-02T02:22:13.447Z,8.80
2023-02-02T02:27:21.641Z,7.28
2023-02-02T02:32:38.030Z,8.27
2023-02-02T02:38:22.378Z,6.60
2023-02-02T02:43:33.027Z,6.78
2023-02-02T02:48:35.295Z,4.97
2023-02-02T02:53:38.098Z,7.30
2023-02-02T02:58:51.508Z,8.80
2023-02-02T03:04:07.291Z,8.35
2023-02-02T03:09:13.681Z,7.63
2023-02-02T03:14:15.751Z,9.43
2023-02-02T03:19:17.837Z,8.50
2023-02-02T03:24:19.916Z,8.80
2023-02-02T03:29:22.014Z,8.68
2023-02-02T03:34:24.024Z,7.95
2023-02-02T03:39:26.152Z,5.90
2023-02-02T03:44:28.181Z,7.55
2023-02-02T03:49:30.174Z,6.18
2023-02-02T03:54:32.278Z,9.38
2023-02-02T03:59:34.320Z,9.60
2023-02-02T04:04:36.377Z,11.63
2023-02-02T04:09:38.408Z,9.05
2023-02-02T04:14:40.452Z,5.22
2023-02-02T04:19:42.526Z,9.00
2023-02-02T04:24:44.517Z,7.78
2023-02-02T04:29:46.623Z,5.88
2023-02-02T04:34:48.751Z,7.50
2023-02-02T04:39:50.898Z,5.10
2023-02-02T04:44:52.945Z,5.80
2023-02-02T04:49:54.969Z,6.53
2023-02-02T04:54:57.078Z,4.82
2023-02-02T04:59:59.064Z,5.45
2023-02-02T05:05:01.057Z,4.72
2023-02-02T05:10:04.814Z,5.68
2023-02-02T05:15:07.665Z,3.85
2023-02-02T05:20:10.458Z,6.43
2023-02-02T05:25:12.457Z,6.80
2023-02-02T05:30:15.029Z,3.65
2023-02-02T05:35:17.262Z,7.40
2023-02-02T05:40:19.385Z,4.00
2023-02-02T05:45:22.031Z,5.10
2023-02-02T05:50:24.226Z,7.55
2023-02-02T05:55:37.141Z,4.72
2023-02-02T06:00:39.198Z,6.07
2023-02-02T06:05:41.247Z,3.88
2023-02-02T06:10:43.363Z,4.10
2023-02-02T06:15:45.432Z,6.80
2023-02-02T06:20:47.702Z,5.82
2023-02-02T06:25:49.915Z,6.38
2023-02-02T06:30:52.150Z,6.28
2023-02-02T06:35:58.435Z,4.05
2023-02-02T06:41:01.378Z,4.68
2023-02-02T06:46:03.529Z,3.35
2023-02-02T06:51:06.180Z,3.17
2023-02-02T06:56:11.646Z,5.55
2023-02-02T07:01:14.846Z,5.32
2023-02-02T07:06:22.983Z,4.50
2023-02-02T07:11:25.084Z,4.80
2023-02-02T07:16:27.268Z,3.85
2023-02-02T07:21:35.405Z,4.03
2023-02-02T07:26:37.734Z,2.80
2023-02-02T07:31:40.093Z,4.10
2023-02-02T07:36:42.470Z,6.50
2023-02-02T07:41:44.562Z,6.25
2023-02-02T07:46:59.689Z,5.90
2023-02-02T07:52:01.796Z,8.48
2023-02-02T07:57:03.916Z,8.23
2023-02-02T08:02:06.330Z,4.88
2023-02-02T08:07:08.759Z,7.80
2023-02-02T08:12:10.809Z,10.55
2023-02-02T08:17:13.296Z,5.60
2023-02-02T08:22:15.347Z,7.63
2023-02-02T08:27:17.424Z,6.38
2023-02-02T08:32:19.532Z,3.10
2023-02-02T08:37:21.551Z,8.23
2023-02-02T08:42:23.642Z,4.72
2023-02-02T08:47:25.885Z,3.80
2023-02-02T08:52:28.039Z,5.53
2023-02-02T08:57:32.644Z,3.08
2023-02-02T09:02:34.727Z,3.65
2023-02-02T09:07:36.883Z,3.55
2023-02-02T09:12:38.928Z,2.95
2023-02-02T09:17:40.989Z,7.05
2023-02-02T09:22:43.102Z,3.10
2023-02-02T09:27:45.166Z,6.10
2023-02-02T09:32:50.123Z,4.57
2023-02-02T09:37:52.161Z,5.80
2023-02-02T09:43:16.988Z,4.68
2023-02-02T09:48:33.792Z,3.47
2023-02-02T09:53:55.593Z,2.72
2023-02-02T09:59:13.729Z,2.55
2023-02-02T10:04:29.792Z,5.13
2023-02-02T10:09:40.505Z,3.65
2023-02-02T10:14:46.343Z,1.40
2023-02-02T10:19:54.017Z,4.68
2023-02-02T10:24:58.656Z,2.20
2023-02-02T10:30:02.190Z,5.43
2023-02-02T10:35:20.147Z,1.98
2023-02-02T10:40:38.515Z,3.85
2023-02-02T10:45:43.477Z,1.67
2023-02-02T10:50:54.040Z,1.47
2023-02-02T10:56:12.063Z,1.55
2023-02-02T11:01:18.225Z,1.27
2023-02-02T11:06:38.983Z,1.80
2023-02-02T11:11:45.394Z,2.65
2023-02-02T11:17:04.402Z,1.25
2023-02-02T11:22:06.573Z,1.20
2023-02-02T11:27:14.701Z,1.75
2023-02-02T11:32:30.708Z,1.17
2023-02-02T11:37:51.498Z,2.08
2023-02-02T11:42:55.453Z,2.05
2023-02-02T11:48:03.002Z,2.08
2023-02-02T11:53:05.272Z,2.15
2023-02-02T11:58:27.373Z,2.30
2023-02-02T12:03:38.923Z,1.55
2023-02-02T12:08:40.967Z,2.78
2023-02-02T12:13:42.947Z,1.58
2023-02-02T12:19:44.811Z,2.25
2023-02-02T12:25:12.604Z,1.60
2023-02-02T12:30:20.299Z,3.58
2023-02-02T12:36:00.659Z,2.60
2023-02-02T12:41:21.568Z,2.58
2023-02-02T12:46:50.986Z,3.10
2023-02-02T12:52:13.164Z,0.85
2023-02-02T12:57:17.940Z,1.40
2023-02-02T13:02:38.940Z,1.02
2023-02-02T13:07:47.804Z,2.40
2023-02-02T13:12:56.315Z,1.23
2023-02-02T13:18:02.121Z,2.72
2023-02-02T13:23:17.532Z,1.08
2023-02-02T13:28:41.826Z,1.38
2023-02-02T13:33:48.393Z,2.70
2023-02-02T13:38:50.718Z,2.13
2023-02-02T13:44:18.141Z,3.78
2023-02-02T13:49:36.575Z,2.20
2023-02-02T13:54:50.638Z,4.28
2023-02-02T14:00:24.883Z,2.03
2023-02-02T14:05:38.045Z,3.33
2023-02-02T14:10:44.251Z,1.75
2023-02-02T14:15:46.363Z,2.70
2023-02-02T14:20:49.198Z,3.88
2023-02-02T14:26:08.859Z,2.72
2023-02-02T14:31:29.645Z,2.88
2023-02-02T14:36:32.004Z,3.17
2023-02-02T14:42:08.184Z,5.40
2023-02-02T14:47:47.488Z,2.33
2023-02-02T14:53:08.486Z,2.75
2023-02-02T14:58:21.368Z,1.25
2023-02-02T15:03:51.015Z,1.60
2023-02-02T15:09:36.743Z,2.92
2023-02-02T15:14:45.128Z,1.98
2023-02-02T15:20:23.572Z,3.08
2023-02-02T15:25:38.792Z,1.60
2023-02-02T15:30:45.249Z,3.35
2023-02-02T15:35:48.340Z,2.78
2023-02-02T15:40:50.761Z,4.40
2023-02-02T15:46:01.285Z,4.53
2023-02-02T15:51:17.599Z,2.28
2023-02-02T15:56:25.674Z,3.50
2023-02-02T16:01:31.969Z,4.38
2023-02-02T16:06:34.851Z,2.45
2023-02-02T16:11:42.324Z,2.83
2023-02-02T16:16:47.264Z,3.30
2023-02-02T16:22:21.858Z,3.30
2023-02-02T16:27:26.834Z,2.70
2023-02-02T16:32:34.748Z,2.07
2023-02-02T16:37:36.777Z,0.82
2023-02-02T16:42:38.783Z,2.00
2023-02-02T16:47:40.833Z,2.58
2023-02-02T16:52:55.699Z,3.42
2023-02-02T16:57:59.333Z,3.80
2023-02-02T17:03:11.000Z,2.70
2023-02-02T17:08:13.941Z,2.78
2023-02-02T17:13:31.116Z,1.48
2023-02-02T17:18:33.216Z,1.70
2023-02-02T17:23:36.927Z,1.67
2023-02-02T17:28:41.303Z,2.83
2023-02-02T17:33:43.693Z,3.80
2023-02-02T17:38:45.764Z,2.45
2023-02-02T17:43:47.835Z,4.65
2023-02-02T17:48:49.869Z,24.58
2023-02-02T17:53:52.305Z,16.05
2023-02-02T17:58:55.019Z,9.95
2023-02-02T18:03:57.287Z,4.72
2023-02-02T18:08:59.411Z,4.00
2023-02-02T18:14:01.473Z,4.88
2023-02-02T18:19:04.530Z,5.45
2023-02-02T18:24:06.601Z,4.28
2023-02-02T18:29:08.776Z,4.57
2023-02-02T18:34:10.862Z,5.18
2023-02-02T18:39:12.862Z,5.43
2023-02-02T18:44:14.949Z,2.97
2023-02-02T18:49:17.587Z,4.78
2023-02-02T18:54:19.652Z,2.75
2023-02-02T18:59:21.667Z,4.30
2023-02-02T19:04:23.805Z,2.80
2023-02-02T19:09:26.020Z,2.53
2023-02-02T19:14:34.452Z,2.40
2023-02-02T19:19:36.994Z,2.47
2023-02-02T19:24:40.771Z,2.60
2023-02-02T19:29:43.021Z,5.78
2023-02-02T19:34:46.628Z,4.80
2023-02-02T19:39:48.737Z,7.90
2023-02-02T19:44:51.031Z,6.50
2023-02-02T19:49:53.194Z,2.35
2023-02-02T19:54:55.472Z,4.68
2023-02-02T19:59:57.507Z,7.80
2023-02-02T20:05:07.333Z,3.17
2023-02-02T20:10:18.615Z,4.45
2023-02-02T20:15:20.608Z,3.92
2023-02-02T20:20:39.416Z,5.63
2023-02-02T20:25:44.181Z,7.75
2023-02-02T20:30:49.874Z,5.28
2023-02-02T20:35:51.945Z,3.90
2023-02-02T20:40:54.522Z,1.40
2023-02-02T20:45:56.620Z,2.80
2023-02-02T20:50:59.198Z,6.18
2023-02-02T20:56:02.747Z,3.22
2023-02-02T21:01:05.794Z,5.20
2023-02-02T21:06:07.931Z,4.00
2023-02-02T21:11:09.939Z,4.45
2023-02-02T21:16:12.001Z,7.35
2023-02-02T21:21:15.887Z,3.85
2023-02-02T21:26:22.045Z,4.80
2023-02-02T21:31:25.173Z,4.10
2023-02-02T21:36:34.901Z,4.93
2023-02-02T21:41:37.735Z,4.25
2023-02-02T21:46:40.523Z,5.05
2023-02-02T21:51:42.600Z,6.03
2023-02-02T21:56:44.648Z,4.18
2023-02-02T22:01:51.062Z,4.00
2023-02-02T22:07:14.248Z,4.22
2023-02-02T22:12:24.437Z,3.50
2023-02-02T22:17:42.106Z,5.53
2023-02-02T22:22:50.114Z,6.40
2023-02-02T22:27:55.626Z,3.88
2023-02-02T22:32:57.647Z,3.47
2023-02-02T22:38:00.050Z,4.13
2023-02-02T22:43:07.892Z,4.00
2023-02-02T22:48:10.329Z,2.15
2023-02-02T22:53:14.042Z,3.45
2023-02-02T22:58:16.061Z,6.50
2023-02-02T23:03:18.536Z,4.78
2023-02-02T23:08:20.820Z,3.17
2023-02-02T23:13:23.070Z,3.88
2023-02-02T23:18:25.081Z,2.88
2023-02-02T23:23:27.121Z,3.65
2023-02-02T23:28:29.112Z,3.50
2023-02-02T23:33:31.236Z,2.38
2023-02-02T23:38:33.455Z,2.97
2023-02-02T23:43:35.625Z,1.83
2023-02-02T23:48:37.850Z,2.53
2023-02-02T23:53:40.569Z,2.17
2023-02-02T23:58:42.603Z,2.25
